Time;durP1;ratioP1;P1;durP2;ratioP2;P2;SDS_P1;SDS_P2;PMS_P1;PMS_P2;Temp;Humidity;BMP_temperature;BMP_pressure;BME280_temperature;BME280_humidity;BME280_pressure;Samples;Min_cycle;Max_cycle;Signal;HPM_P1;HPM_P2
2022/10/15 00:02:23;;;;;;;35.00;26.85;;;;;;;10.16;100.00;100678.97;5067120;28;20578;-62
2022/10/15 00:04:48;;;;;;;35.55;26.58;;;;;;;10.13;100.00;100686.63;5066354;28;20018;-62
2022/10/15 00:07:13;;;;;;;31.42;25.40;;;;;;;10.12;100.00;100687.44;5052827;28;20293;-62
2022/10/15 00:09:38;;;;;;;34.35;25.58;;;;;;;10.08;100.00;100689.06;5069393;28;20020;-62
2022/10/15 00:12:04;;;;;;;35.78;26.33;;;;;;;10.06;100.00;100694.19;5078144;28;20027;-62
2022/10/15 00:14:30;;;;;;;30.80;25.33;;;;;;;10.04;100.00;100689.78;5066907;28;20020;-62
2022/10/15 00:16:55;;;;;;;31.58;23.98;;;;;;;10.00;100.00;100681.03;5066577;28;20025;-62
2022/10/15 00:19:20;;;;;;;32.25;25.95;;;;;;;9.97;100.00;100684.44;5066981;28;20029;-63
2022/10/15 00:21:45;;;;;;;30.85;23.40;;;;;;;9.95;100.00;100686.09;5070054;28;20016;-62
2022/10/15 00:24:11;;;;;;;31.20;24.55;;;;;;;9.96;100.00;100689.56;5076316;28;20016;-62
2022/10/15 00:26:36;;;;;;;30.05;23.02;;;;;;;9.95;100.00;100682.59;5052029;28;20025;-62
2022/10/15 00:29:03;;;;;;;28.75;22.48;;;;;;;9.97;100.00;100696.47;5067102;28;20551;-62
2022/10/15 00:31:30;;;;;;;27.13;21.90;;;;;;;9.97;100.00;100692.19;5066245;28;20064;-63
2022/10/15 00:33:57;;;;;;;26.73;22.17;;;;;;;9.99;100.00;100689.66;5072564;28;20074;-62
2022/10/15 00:36:25;;;;;;;28.35;24.17;;;;;;;10.00;100.00;100693.97;5074329;28;20367;-62
2022/10/15 00:38:51;;;;;;;33.85;26.52;;;;;;;10.02;100.00;100697.50;5071181;28;20027;-62
2022/10/15 00:41:39;;;;;;;31.35;25.52;;;;;;;10.03;100.00;100690.63;5067838;28;20033;-63
2022/10/15 00:44:20;;;;;;;32.80;24.52;;;;;;;10.03;100.00;100686.34;5063138;28;20063;-62
2022/10/15 00:46:48;;;;;;;31.27;25.80;;;;;;;10.04;100.00;100688.09;5066741;28;20120;-62
2022/10/15 00:49:19;;;;;;;32.97;25.73;;;;;;;10.06;100.00;100696.78;5066223;28;20031;-62
2022/10/15 00:51:48;;;;;;;28.95;25.08;;;;;;;10.08;100.00;100699.41;5065805;28;20104;-62
2022/10/15 00:54:14;;;;;;;31.38;27.05;;;;;;;10.09;100.00;100696.00;5056229;28;21617;-62
2022/10/15 00:56:42;;;;;;;31.98;25.65;;;;;;;10.10;100.00;100697.75;5070024;28;20469;-62
2022/10/15 00:59:09;;;;;;;35.47;28.88;;;;;;;10.12;100.00;100696.09;5069551;28;20033;-62
2022/10/15 01:01:35;;;;;;;35.38;28.98;;;;;;;10.16;100.00;100702.25;5069730;28;20020;-62
2022/10/15 01:04:01;;;;;;;33.67;28.15;;;;;;;10.17;100.00;100701.41;5070043;28;20498;-62
2022/10/15 01:06:27;;;;;;;33.20;29.15;;;;;;;10.21;100.00;100698.09;5069054;28;20051;-62
2022/10/15 01:08:53;;;;;;;34.30;29.40;;;;;;;10.23;100.00;100698.16;5069956;28;20089;-62
2022/10/15 01:11:43;;;;;;;33.45;27.55;;;;;;;10.25;100.00;100699.09;5061816;28;20056;-62
2022/10/15 01:14:30;;;;;;;36.42;28.83;;;;;;;10.26;100.00;100691.34;5062713;28;20047;-62
2022/10/15 01:17:11;;;;;;;37.92;30.67;;;;;;;10.30;100.00;100695.81;5068296;28;20036;-63
2022/10/15 01:19:45;;;;;;;33.63;29.75;;;;;;;10.36;100.00;100684.72;5070087;28;20468;-62
2022/10/15 01:22:24;;;;;;;42.78;34.33;;;;;;;10.44;100.00;100672.03;5080169;28;20434;-62
2022/10/15 01:25:20;;;;;;;40.08;34.35;;;;;;;10.49;100.00;100665.28;5069779;28;20028;-62
2022/10/15 01:27:54;;;;;;;38.95;32.60;;;;;;;10.57;100.00;100666.41;5055658;28;20016;-62
2022/10/15 01:30:56;;;;;;;44.80;35.25;;;;;;;10.66;100.00;100664.91;5066562;28;20028;-62
2022/10/15 01:33:40;;;;;;;48.42;37.92;;;;;;;10.73;100.00;100659.06;5055620;28;20040;-62
2022/10/15 01:36:19;;;;;;;49.03;36.58;;;;;;;10.80;100.00;100655.81;5067976;28;20021;-62
2022/10/15 01:38:54;;;;;;;48.25;38.78;;;;;;;10.84;100.00;100655.91;5069302;28;20094;-63
2022/10/15 01:41:49;;;;;;;51.47;38.47;;;;;;;10.89;100.00;100656.91;5061078;28;20134;-62
2022/10/15 01:44:23;;;;;;;47.08;37.42;;;;;;;10.92;100.00;100651.78;5066360;28;20049;-62
2022/10/15 01:46:57;;;;;;;45.40;37.00;;;;;;;10.93;100.00;100651.88;5069328;28;20025;-63
2022/10/15 01:49:26;;;;;;;50.58;39.55;;;;;;;10.99;100.00;100656.31;5083064;28;20198;-62
2022/10/15 01:51:54;;;;;;;47.88;37.55;;;;;;;11.02;100.00;100655.53;5069177;28;20022;-62
2022/10/15 01:54:23;;;;;;;48.13;38.92;;;;;;;11.03;100.00;100652.97;5068729;28;20774;-62
2022/10/15 01:56:51;;;;;;;46.95;38.28;;;;;;;11.05;100.00;100650.44;5068905;28;20021;-62
2022/10/15 01:59:21;;;;;;;48.45;39.00;;;;;;;11.08;100.00;100650.50;5069251;28;20028;-62
2022/10/15 02:01:47;;;;;;;47.58;38.22;;;;;;;11.09;100.00;100647.09;5068760;28;20016;-62
2022/10/15 02:04:21;;;;;;;52.03;38.10;;;;;;;11.11;100.00;100637.63;5064292;28;20039;-62
2022/10/15 02:07:10;;;;;;;46.88;37.30;;;;;;;11.15;100.00;100648.97;5054520;28;20021;-62
2022/10/15 02:10:21;;;;;;;48.10;36.47;;;;;;;11.18;100.00;100638.66;5063429;28;20507;-62
2022/10/15 02:12:58;;;;;;;48.40;35.97;;;;;;;11.20;100.00;100637.00;5025547;28;20037;-62
2022/10/15 02:15:36;;;;;;;43.83;35.47;;;;;;;11.22;100.00;100640.53;5064638;28;20048;-62
2022/10/15 02:18:04;;;;;;;47.90;37.08;;;;;;;11.24;100.00;100636.22;5071434;28;20040;-62
2022/10/15 02:20:47;;;;;;;45.95;35.58;;;;;;;11.25;100.00;100625.03;5086488;28;20104;-62
2022/10/15 02:23:17;;;;;;;44.72;36.60;;;;;;;11.27;100.00;100630.25;5084958;28;20054;-62
2022/10/15 02:25:45;;;;;;;49.78;37.47;;;;;;;11.27;100.00;100625.94;5068170;28;20048;-62
2022/10/15 02:28:12;;;;;;;46.28;38.20;;;;;;;11.28;100.00;100627.69;5082391;28;20039;-62
2022/10/15 02:30:41;;;;;;;45.10;37.22;;;;;;;11.29;100.00;100625.97;5069907;28;20059;-62
2022/10/15 02:33:07;;;;;;;47.03;37.40;;;;;;;11.29;100.00;100616.50;5069524;28;20024;-62
2022/10/15 02:35:34;;;;;;;48.28;36.60;;;;;;;11.30;100.00;100619.94;5080643;28;20416;-62
2022/10/15 02:38:04;;;;;;;43.85;34.75;;;;;;;11.31;100.00;100623.44;5069598;28;20035;-62
2022/10/15 02:40:32;;;;;;;44.60;36.80;;;;;;;11.32;100.00;100612.19;5057206;28;20112;-62
2022/10/15 02:42:58;;;;;;;46.17;37.05;;;;;;;11.31;100.00;100606.16;5068053;28;20488;-62
2022/10/15 02:45:23;;;;;;;45.97;37.72;;;;;;;11.32;100.00;100607.00;5067801;28;20407;-62
2022/10/15 02:47:49;;;;;;;45.03;36.15;;;;;;;11.32;100.00;100600.13;5065354;28;20028;-62
2022/10/15 02:50:14;;;;;;;45.45;37.45;;;;;;;11.32;100.00;100601.81;5067883;28;20485;-62
2022/10/15 02:52:39;;;;;;;43.20;35.10;;;;;;;11.32;100.00;100594.03;5083104;28;20024;-62
2022/10/15 02:55:05;;;;;;;44.78;36.08;;;;;;;11.33;100.00;100593.22;5072612;28;20033;-62
2022/10/15 02:57:30;;;;;;;44.20;34.90;;;;;;;11.34;100.00;100582.00;5055414;28;20075;-62
2022/10/15 02:59:56;;;;;;;48.67;37.30;;;;;;;11.34;100.00;100584.59;5056371;28;20032;-62
2022/10/15 03:02:21;;;;;;;48.60;37.20;;;;;;;11.35;100.00;100575.97;5066409;28;20468;-62
2022/10/15 03:04:46;;;;;;;46.42;36.92;;;;;;;11.34;100.00;100575.09;5070121;28;20242;-62
2022/10/15 03:07:13;;;;;;;50.17;39.58;;;;;;;11.35;100.00;100575.97;5067666;28;20024;-62
2022/10/15 03:09:38;;;;;;;50.50;41.72;;;;;;;11.34;100.00;100575.09;5067210;28;20031;-62
2022/10/15 03:12:03;;;;;;;51.60;43.72;;;;;;;11.34;100.00;100572.50;5069473;28;20479;-62
2022/10/15 03:14:29;;;;;;;59.22;45.53;;;;;;;11.35;100.00;100575.97;5067775;28;20017;-62
2022/10/15 03:16:54;;;;;;;52.20;43.85;;;;;;;11.34;100.00;100569.91;5067229;28;20480;-62
2022/10/15 03:19:19;;;;;;;58.95;44.45;;;;;;;11.36;100.00;100577.72;5067370;28;20093;-62
2022/10/15 03:21:45;;;;;;;54.78;41.80;;;;;;;11.36;100.00;100577.72;5067265;28;20071;-62
2022/10/15 03:24:10;;;;;;;53.60;42.38;;;;;;;11.37;100.00;100585.53;5068042;28;20392;-61
2022/10/15 03:26:35;;;;;;;55.65;43.65;;;;;;;11.37;100.00;100585.53;5075389;28;20097;-61
2022/10/15 03:29:01;;;;;;;56.63;40.60;;;;;;;11.37;100.00;100580.34;5073497;28;20031;-62
2022/10/15 03:31:26;;;;;;;54.55;43.08;;;;;;;11.38;100.00;100581.22;5078522;28;20024;-62
2022/10/15 03:33:51;;;;;;;50.85;39.95;;;;;;;11.38;100.00;100582.13;5067537;28;20082;-61
2022/10/15 03:36:17;;;;;;;56.58;41.97;;;;;;;11.39;100.00;100577.78;5066323;28;20032;-61
2022/10/15 03:38:42;;;;;;;49.97;39.03;;;;;;;11.37;100.00;100584.69;5066950;28;20282;-62
2022/10/15 03:41:07;;;;;;;50.75;38.33;;;;;;;11.37;100.00;100576.91;5082985;28;20088;-61
2022/10/15 03:43:33;;;;;;;54.45;39.38;;;;;;;11.37;100.00;100577.75;5074294;28;20097;-62
2022/10/15 03:46:03;;;;;;;52.05;38.47;;;;;;;11.38;100.00;100576.03;5066552;28;20016;-61
2022/10/15 03:48:29;;;;;;;55.72;39.65;;;;;;;11.39;100.00;100572.59;5067050;28;20028;-62
2022/10/15 03:50:54;;;;;;;59.53;40.00;;;;;;;11.39;100.00;100573.50;5052542;28;20028;-62
2022/10/15 03:53:19;;;;;;;65.25;41.65;;;;;;;11.41;100.00;100566.63;5067132;28;20042;-63
2022/10/15 03:55:44;;;;;;;57.88;41.95;;;;;;;11.42;100.00;100562.31;5066905;28;20032;-62
2022/10/15 03:58:10;;;;;;;57.17;41.67;;;;;;;11.41;100.00;100556.25;5066769;28;20020;-62
2022/10/15 04:00:35;;;;;;;63.42;42.47;;;;;;;11.43;100.00;100552.78;5066232;28;20027;-62
2022/10/15 04:03:00;;;;;;;64.65;43.08;;;;;;;11.44;100.00;100563.22;5063743;28;20028;-62
2022/10/15 04:05:26;;;;;;;68.60;44.70;;;;;;;11.44;100.00;100560.63;5057114;28;20472;-61
2022/10/15 04:07:51;;;;;;;68.43;43.65;;;;;;;11.46;100.00;100561.53;5053002;28;20035;-62
2022/10/15 04:10:16;;;;;;;64.82;42.50;;;;;;;11.46;100.00;100552.91;5067432;28;20028;-61
2022/10/15 04:12:41;;;;;;;67.65;42.75;;;;;;;11.47;100.00;100563.31;5066109;28;20028;-61
2022/10/15 04:15:07;;;;;;;63.92;43.50;;;;;;;11.47;100.00;100571.09;5067100;28;20024;-62
2022/10/15 04:17:33;;;;;;;65.03;43.67;;;;;;;11.47;100.00;100568.50;5066511;28;20136;-62
2022/10/15 04:19:59;;;;;;;65.18;42.50;;;;;;;11.47;100.00;100565.91;5066415;28;20025;-61
2022/10/15 04:22:24;;;;;;;63.28;43.45;;;;;;;11.48;100.00;100569.34;5074192;28;20031;-62
2022/10/15 04:24:49;;;;;;;66.60;43.80;;;;;;;11.48;100.00;100567.63;5073296;28;20042;-62
2022/10/15 04:27:15;;;;;;;73.03;44.70;;;;;;;11.50;100.00;100578.06;5067531;28;20027;-62
2022/10/15 04:29:40;;;;;;;66.00;43.65;;;;;;;11.50;100.00;100586.72;5059868;28;20037;-62
2022/10/15 04:32:05;;;;;;;71.50;45.95;;;;;;;11.51;100.00;100578.09;5055851;28;20106;-62
2022/10/15 04:34:31;;;;;;;67.43;42.80;;;;;;;11.56;100.00;100577.31;5055923;28;20029;-62
2022/10/15 04:36:56;;;;;;;71.60;44.60;;;;;;;11.57;100.00;100566.09;5053420;28;20025;-62
2022/10/15 04:39:21;;;;;;;73.35;45.85;;;;;;;11.59;100.00;100564.41;5056819;28;20121;-61
2022/10/15 04:41:47;;;;;;;73.15;46.70;;;;;;;11.59;100.00;100560.13;5058253;28;20033;-62
2022/10/15 04:44:13;;;;;;;77.18;45.53;;;;;;;11.62;100.00;100559.31;5050325;28;20035;-62
2022/10/15 04:46:38;;;;;;;81.05;47.15;;;;;;;11.63;100.00;100561.06;5050301;28;20020;-62
2022/10/15 04:49:03;;;;;;;73.70;44.22;;;;;;;11.63;100.00;100559.34;5058669;28;20131;-62
2022/10/15 04:51:29;;;;;;;74.45;43.90;;;;;;;11.64;100.00;100568.00;5070518;28;20101;-62
2022/10/15 04:53:54;;;;;;;70.32;42.10;;;;;;;11.66;100.00;100568.91;5060072;28;20036;-62
2022/10/15 04:56:21;;;;;;;76.28;44.17;;;;;;;11.67;100.00;100557.72;5055133;28;20350;-62
2022/10/15 04:58:47;;;;;;;74.78;44.25;;;;;;;11.67;100.00;100562.91;5054241;28;20354;-62
2022/10/15 05:01:16;;;;;;;71.60;42.20;;;;;;;11.69;100.00;100563.81;5053034;28;20075;-62
2022/10/15 05:03:43;;;;;;;68.82;42.13;;;;;;;11.70;100.00;100552.56;5051496;28;20025;-62
2022/10/15 05:06:15;;;;;;;69.22;41.88;;;;;;;11.70;100.00;100562.06;5051125;28;20020;-62
2022/10/15 05:08:41;;;;;;;70.75;42.65;;;;;;;11.67;100.00;100560.31;5053423;28;20013;-61
2022/10/15 05:11:12;;;;;;;69.10;42.92;;;;;;;11.69;100.00;100566.41;5053180;28;20484;-61
2022/10/15 05:13:38;;;;;;;72.78;40.35;;;;;;;11.68;100.00;100558.56;5052602;28;20103;-61
2022/10/15 05:16:17;;;;;;;69.05;40.42;;;;;;;11.68;100.00;100558.56;5051291;28;20108;-62
2022/10/15 05:18:44;;;;;;;58.90;36.72;;;;;;;11.68;100.00;100574.13;5052150;28;20025;-61
2022/10/15 05:21:11;;;;;;;58.45;36.95;;;;;;;11.69;100.00;100571.59;5050737;28;20056;-62
2022/10/15 05:23:37;;;;;;;54.42;35.15;;;;;;;11.71;100.00;100579.41;5054355;28;20082;-62
2022/10/15 05:26:09;;;;;;;53.75;35.75;;;;;;;11.73;100.00;100576.00;5052001;28;20032;-62
2022/10/15 05:28:34;;;;;;;54.03;34.03;;;;;;;11.72;100.00;100576.84;5052963;28;20060;-62
2022/10/15 05:31:07;;;;;;;54.10;35.17;;;;;;;11.73;100.00;100573.41;5050360;28;20071;-62
2022/10/15 05:33:34;;;;;;;51.97;34.40;;;;;;;11.73;100.00;100573.41;5053843;28;20814;-62
2022/10/15 05:36:13;;;;;;;49.83;32.10;;;;;;;11.73;100.00;100570.81;5054746;28;20470;-62
2022/10/15 05:38:42;;;;;;;47.22;32.55;;;;;;;11.74;100.00;100572.56;5055408;28;20025;-62
2022/10/15 05:41:08;;;;;;;49.88;31.88;;;;;;;11.74;100.00;100564.78;5058514;28;20432;-62
2022/10/15 05:43:33;;;;;;;52.38;33.65;;;;;;;11.76;100.00;100577.81;5061362;28;20048;-62
2022/10/15 05:45:59;;;;;;;49.25;33.03;;;;;;;11.74;100.00;100563.91;5055826;28;20017;-61
2022/10/15 05:48:24;;;;;;;46.75;31.60;;;;;;;11.75;100.00;100558.75;5050555;28;20453;-61
2022/10/15 05:50:49;;;;;;;46.63;32.08;;;;;;;11.75;100.00;100561.34;5049675;28;20044;-61
2022/10/15 05:53:15;;;;;;;47.95;31.73;;;;;;;11.72;100.00;100556.09;5055301;28;20113;-61
2022/10/15 05:55:40;;;;;;;51.88;32.50;;;;;;;11.73;100.00;100563.03;5048379;28;20446;-62
2022/10/15 05:58:05;;;;;;;41.65;29.67;;;;;;;11.73;100.00;100563.03;5049719;28;20440;-62
2022/10/15 06:00:32;;;;;;;44.63;31.90;;;;;;;11.74;100.00;100563.91;5049502;28;20396;-61
2022/10/15 06:02:57;;;;;;;49.20;33.20;;;;;;;11.72;100.00;100569.06;5052985;28;20032;-61
2022/10/15 06:05:23;;;;;;;48.08;33.40;;;;;;;11.73;100.00;100564.72;5053545;28;20222;-62
2022/10/15 06:07:48;;;;;;;47.10;32.47;;;;;;;11.74;100.00;100558.72;5050425;28;20211;-62
2022/10/15 06:10:13;;;;;;;47.42;33.58;;;;;;;11.72;100.00;100563.88;5049011;28;20385;-62
2022/10/15 06:12:39;;;;;;;50.33;31.90;;;;;;;11.71;100.00;100569.88;5048377;28;20070;-61
2022/10/15 06:15:05;;;;;;;45.95;32.72;;;;;;;11.70;100.00;100578.53;5053504;28;20389;-62
2022/10/15 06:17:30;;;;;;;46.40;32.47;;;;;;;11.69;100.00;100570.72;5051101;28;20037;-62
2022/10/15 06:19:56;;;;;;;45.50;32.53;;;;;;;11.68;100.00;100561.16;5069164;28;20027;-62
2022/10/15 06:22:21;;;;;;;47.67;32.45;;;;;;;11.68;100.00;100567.22;5053913;28;20668;-62
2022/10/15 06:24:46;;;;;;;49.40;33.60;;;;;;;11.68;100.00;100571.53;5058768;28;20032;-62
2022/10/15 06:27:12;;;;;;;50.35;32.05;;;;;;;11.68;100.00;100569.81;5058691;28;20606;-62
2022/10/15 06:29:38;;;;;;;52.33;35.92;;;;;;;11.68;100.00;100567.22;5053894;28;20031;-62
2022/10/15 06:32:03;;;;;;;58.60;37.92;;;;;;;11.69;100.00;100571.59;5049480;28;20397;-62
2022/10/15 06:34:29;;;;;;;53.42;35.95;;;;;;;11.70;100.00;100565.56;5050020;28;20549;-62
2022/10/15 06:36:54;;;;;;;54.53;35.40;;;;;;;11.71;100.00;100564.69;5052486;28;20421;-62
2022/10/15 06:39:19;;;;;;;56.60;35.72;;;;;;;11.73;100.00;100572.50;5052962;28;20013;-62
2022/10/15 06:41:45;;;;;;;52.60;35.05;;;;;;;11.74;100.00;100566.50;5048352;28;20025;-62
2022/10/15 06:44:10;;;;;;;54.08;35.65;;;;;;;11.74;100.00;100561.31;5052598;28;20484;-62
2022/10/15 06:46:35;;;;;;;49.92;33.15;;;;;;;11.75;100.00;100556.16;5048875;28;20199;-62
2022/10/15 06:49:01;;;;;;;49.60;33.47;;;;;;;11.76;100.00;100565.69;5048308;28;20044;-62
2022/10/15 06:51:26;;;;;;;47.63;32.47;;;;;;;11.76;100.00;100557.88;5050494;28;20095;-62
2022/10/15 06:53:51;;;;;;;47.33;31.73;;;;;;;11.79;100.00;100561.41;5054281;28;20028;-62
2022/10/15 06:56:17;;;;;;;44.60;30.25;;;;;;;11.81;100.00;100558.00;5054732;28;20021;-62
2022/10/15 06:58:42;;;;;;;46.92;30.40;;;;;;;11.81;100.00;100555.41;5048502;28;20417;-62
2022/10/15 07:01:08;;;;;;;42.15;29.48;;;;;;;11.84;100.00;100557.19;5050735;28;20025;-62
2022/10/15 07:03:35;;;;;;;44.67;28.98;;;;;;;11.85;100.00;100569.34;5061507;28;20589;-62
2022/10/15 07:06:02;;;;;;;43.42;30.65;;;;;;;11.85;100.00;100566.75;5048096;28;20029;-62
2022/10/15 07:08:28;;;;;;;41.05;29.40;;;;;;;11.88;100.00;100569.41;5051475;28;20116;-62
2022/10/15 07:10:53;;;;;;;40.50;28.42;;;;;;;11.90;100.00;100565.13;5049766;28;20096;-62
2022/10/15 07:13:18;;;;;;;41.33;28.10;;;;;;;11.90;100.00;100562.53;5050801;28;20122;-61
2022/10/15 07:15:45;;;;;;;40.63;29.52;;;;;;;11.92;100.00;100573.84;5050700;28;20029;-62
2022/10/15 07:18:10;;;;;;;40.60;28.33;;;;;;;11.95;100.00;100571.28;5060679;28;20034;-62
2022/10/15 07:20:35;;;;;;;38.95;27.42;;;;;;;11.98;100.00;100579.16;5055329;28;20365;-62
2022/10/15 07:23:01;;;;;;;41.58;27.88;;;;;;;12.01;100.00;100567.97;5064134;28;20021;-62
2022/10/15 07:25:26;;;;;;;50.38;25.83;;;;;;;12.01;100.00;100568.84;5063808;28;20042;-62
2022/10/15 07:27:54;;;;;;;38.65;26.98;;;;;;;12.04;100.00;100562.81;5058031;28;20048;-62
2022/10/15 07:30:21;;;;;;;34.47;25.30;;;;;;;12.07;100.00;100562.03;5050946;28;20413;-62
2022/10/15 07:32:46;;;;;;;35.80;26.10;;;;;;;12.08;100.00;100548.19;5049767;28;20581;-62
2022/10/15 07:35:11;;;;;;;33.97;25.45;;;;;;;12.12;100.00;100547.44;5047348;28;20021;-62
2022/10/15 07:37:36;;;;;;;34.85;25.40;;;;;;;12.17;100.00;100543.22;5053211;28;20423;-62
2022/10/15 07:40:02;;;;;;;37.38;26.42;;;;;;;12.21;100.00;100532.06;5050511;28;20055;-62
2022/10/15 07:42:27;;;;;;;38.38;25.17;;;;;;;12.26;100.00;100537.34;5053389;28;20040;-62
2022/10/15 07:44:53;;;;;;;34.25;25.15;;;;;;;12.29;100.00;100534.78;5048072;28;20047;-62
2022/10/15 07:47:18;;;;;;;31.73;24.48;;;;;;;12.35;100.00;100542.72;5052922;28;20017;-62
2022/10/15 07:49:43;;;;;;;31.73;23.73;;;;;;;12.34;100.00;100538.34;5049208;28;20583;-62
2022/10/15 07:52:09;;;;;;;30.00;22.48;;;;;;;12.37;100.00;100540.16;5047966;28;20400;-62
2022/10/15 07:54:34;;;;;;;32.92;23.38;;;;;;;12.39;100.00;100541.06;5053766;28;20021;-62
2022/10/15 07:57:00;;;;;;;27.63;21.20;;;;;;;12.40;100.00;100534.13;5061544;28;20135;-62
2022/10/15 07:59:25;;;;;;;27.98;21.23;;;;;;;12.44;100.00;100531.63;5066841;28;20422;-62
2022/10/15 08:01:50;;;;;;;28.48;21.33;;;;;;;12.55;100.00;100524.03;5049305;28;20477;-62
2022/10/15 08:04:16;;;;;;;30.55;21.75;;;;;;;12.72;100.00;100532.16;5047322;28;20025;-62
2022/10/15 08:06:41;;;;;;;24.60;18.85;;;;;;;12.81;100.00;100527.94;5062254;28;20403;-62
2022/10/15 08:09:07;;;;;;;25.55;18.80;;;;;;;12.84;100.00;100517.63;5071519;28;20043;-62
2022/10/15 08:11:32;;;;;;;23.23;19.02;;;;;;;12.88;100.00;100527.22;5060781;28;20040;-62
2022/10/15 08:13:58;;;;;;;21.80;17.27;;;;;;;12.92;100.00;100529.03;5056493;28;20095;-62
2022/10/15 08:16:23;;;;;;;20.73;16.38;;;;;;;12.94;100.00;100516.94;5063381;28;20420;-62
2022/10/15 08:18:48;;;;;;;20.65;14.85;;;;;;;12.96;100.00;100510.03;5077708;28;20070;-62
2022/10/15 08:21:14;;;;;;;20.42;15.85;;;;;;;13.07;100.00;100511.94;5055360;28;20120;-62
2022/10/15 08:23:39;;;;;;;16.17;13.50;;;;;;;13.09;100.00;100505.91;5054613;28;20032;-62
2022/10/15 08:26:04;;;;;;;18.60;13.88;;;;;;;13.14;100.00;100512.91;5059971;28;20102;-62
2022/10/15 08:28:31;;;;;;;15.80;13.60;;;;;;;13.18;100.00;100509.50;5059346;28;20042;-62
2022/10/15 08:30:58;;;;;;;13.40;12.00;;;;;;;13.24;100.00;100516.53;5047898;28;20059;-62
2022/10/15 08:33:23;;;;;;;13.20;11.27;;;;;;;13.26;100.00;100514.84;5049831;28;20059;-63
2022/10/15 08:35:49;;;;;;;12.68;10.85;;;;;;;13.28;100.00;100508.78;5051677;28;20049;-63
2022/10/15 08:38:15;;;;;;;10.63;9.45;;;;;;;13.31;100.00;100510.59;5060089;28;20040;-63
2022/10/15 08:40:48;;;;;;;10.55;8.80;;;;;;;13.31;100.00;100510.59;5063091;28;20074;-63
2022/10/15 08:43:36;;;;;;;10.63;9.23;;;;;;;13.29;100.00;100507.06;5055435;28;20362;-63
2022/10/15 08:46:07;;;;;;;10.18;8.98;;;;;;;13.31;100.00;100495.81;5052970;28;20482;-63
2022/10/15 08:48:39;;;;;;;9.80;8.73;;;;;;;13.32;100.00;100495.00;5064757;28;20032;-63
2022/10/15 08:51:09;;;;;;;11.02;8.73;;;;;;;13.35;100.00;100481.13;5065437;28;20032;-62
2022/10/15 08:53:44;;;;;;;10.85;8.60;;;;;;;13.40;100.00;100495.09;5065922;28;20517;-63
2022/10/15 08:56:35;;;;;;;11.23;9.40;;;;;;;13.45;100.00;100485.59;5065693;28;20027;-63
2022/10/15 08:59:05;;;;;;;9.40;8.30;;;;;;;13.50;100.00;100495.22;5058163;28;20678;-62
2022/10/15 09:01:43;;;;;;;8.90;7.95;;;;;;;13.51;100.00;100476.16;5069732;28;20028;-63
2022/10/15 09:04:36;;;;;;;9.75;8.75;;;;;;;13.49;100.00;100478.72;5057114;28;20496;-62
2022/10/15 09:07:13;;;;;;;11.43;8.40;;;;;;;13.50;100.00;100466.59;5064374;28;20016;-63
2022/10/15 09:09:52;;;;;;;11.77;7.88;;;;;;;13.51;100.00;100461.41;5065743;28;20052;-63
2022/10/15 09:12:25;;;;;;;8.90;7.90;;;;;;;13.55;100.00;100462.34;5057447;28;20192;-63
2022/10/15 09:14:54;;;;;;;10.23;8.15;;;;;;;13.57;100.00;100460.66;5069651;28;20050;-63
2022/10/15 09:17:23;;;;;;;9.63;8.40;;;;;;;13.60;100.00;100459.84;5068372;28;20020;-63
2022/10/15 09:19:53;;;;;;;10.07;8.25;;;;;;;13.61;100.00;100462.44;5071701;28;20422;-63
2022/10/15 09:22:23;;;;;;;11.27;8.55;;;;;;;13.61;100.00;100467.66;5058348;28;20086;-63
2022/10/15 09:24:49;;;;;;;9.48;8.25;;;;;;;13.59;100.00;100466.75;5065957;28;20453;-63
2022/10/15 09:27:35;;;;;;;10.88;8.23;;;;;;;13.59;100.00;100469.34;5071295;28;20095;-63
2022/10/15 09:30:26;;;;;;;9.70;8.70;;;;;;;13.59;100.00;100463.28;5068120;28;20384;-63
2022/10/15 09:32:59;;;;;;;10.80;9.45;;;;;;;13.60;100.00;100471.09;5067530;28;20089;-63
2022/10/15 09:35:30;;;;;;;13.98;8.95;;;;;;;13.61;100.00;100464.16;5067136;28;20028;-63
2022/10/15 09:38:22;;;;;;;11.20;9.10;;;;;;;13.60;100.00;100458.06;5069262;28;20028;-64
2022/10/15 09:41:06;;;;;;;9.70;7.60;;;;;;;13.62;100.00;100458.09;5054085;28;20052;-63
2022/10/15 09:43:35;;;;;;;10.50;8.38;;;;;;;13.62;100.00;100458.97;5065362;28;20036;-63
2022/10/15 09:46:04;;;;;;;8.45;7.55;;;;;;;13.64;100.00;100459.00;5068334;28;20028;-63
2022/10/15 09:48:39;;;;;;;8.68;7.65;;;;;;;13.64;100.00;100457.28;5070888;28;20111;-63
2022/10/15 09:51:29;;;;;;;9.38;7.75;;;;;;;13.65;100.00;100453.81;5072905;28;20063;-63
2022/10/15 09:54:44;;;;;;;9.20;7.32;;;;;;;13.64;100.00;100456.41;5075049;28;20104;-63
2022/10/15 09:57:13;;;;;;;8.15;7.22;;;;;;;13.60;100.00;100455.47;5063521;28;20055;-63
2022/10/15 09:59:53;;;;;;;10.50;7.22;;;;;;;13.61;100.00;100452.03;5068585;28;20437;-63
2022/10/15 10:02:21;;;;;;;8.77;7.07;;;;;;;13.61;100.00;100438.13;5068009;28;20029;-62
2022/10/15 10:04:46;;;;;;;9.55;6.85;;;;;;;13.61;100.00;100436.41;5068106;28;20024;-62
2022/10/15 10:07:36;;;;;;;8.93;7.13;;;;;;;13.62;100.00;100438.16;5068673;28;20016;-63
2022/10/15 10:10:09;;;;;;;8.95;6.55;;;;;;;13.64;100.00;100433.84;5063123;28;20042;-63
2022/10/15 10:12:35;;;;;;;8.27;5.72;;;;;;;13.66;100.00;100439.94;5081722;28;20765;-63
2022/10/15 10:15:31;;;;;;;9.15;6.70;;;;;;;13.70;100.00;100430.44;5068887;28;20028;-63
2022/10/15 10:17:56;;;;;;;9.02;6.47;;;;;;;13.73;100.00;100429.59;5063807;28;20040;-62
2022/10/15 10:20:23;;;;;;;7.57;6.43;;;;;;;13.74;100.00;100421.84;5054516;28;20028;-64
2022/10/15 10:22:51;;;;;;;7.88;5.47;;;;;;;13.75;100.00;100425.28;5063957;28;20536;-63
2022/10/15 10:25:25;;;;;;;6.30;5.53;;;;;;;13.75;100.00;100431.38;5056448;28;20324;-63
2022/10/15 10:27:55;;;;;;;7.13;5.53;;;;;;;13.77;100.00;100431.41;5082907;28;20483;-63
2022/10/15 10:30:20;;;;;;;6.90;5.63;;;;;;;13.80;100.00;100428.81;5070044;28;20029;-63
2022/10/15 10:32:46;;;;;;;5.93;5.30;;;;;;;13.84;100.00;100430.63;5053244;28;20504;-63
2022/10/15 10:35:20;;;;;;;5.88;4.97;;;;;;;13.85;100.00;100434.94;5055396;28;20051;-63
2022/10/15 10:37:46;;;;;;;5.20;4.30;;;;;;;13.88;100.00;100432.41;5051356;28;20028;-64
2022/10/15 10:40:22;;;;;;;5.30;3.92;;;;;;;13.93;100.00;100441.16;5051668;28;20500;-63
2022/10/15 10:43:08;;;;;;;5.25;3.35;;;;;;;14.01;100.00;100441.22;5049298;28;20130;-63
2022/10/15 10:45:34;;;;;;;4.88;2.85;;;;;;;14.05;100.00;100436.91;5057449;28;20028;-63
2022/10/15 10:48:17;;;;;;;3.10;2.55;;;;;;;14.05;100.00;100429.97;5051382;28;20017;-63
2022/10/15 10:50:42;;;;;;;2.97;2.17;;;;;;;14.10;100.00;100442.19;5057974;28;20039;-63
2022/10/15 10:53:23;;;;;;;3.67;2.17;;;;;;;14.16;100.00;100444.84;5069905;28;20020;-63
2022/10/15 10:55:51;;;;;;;4.00;1.80;;;;;;;14.22;100.00;100426.69;5058645;28;20104;-63
2022/10/15 10:58:20;;;;;;;2.90;1.70;;;;;;;14.27;100.00;100429.34;5052291;28;20021;-63
2022/10/15 11:00:51;;;;;;;2.72;1.88;;;;;;;14.32;100.00;100430.25;5070093;28;20028;-63
2022/10/15 11:03:35;;;;;;;3.10;1.80;;;;;;;14.37;100.00;100425.97;5068151;28;20051;-63
2022/10/15 11:06:06;;;;;;;1.90;1.80;;;;;;;14.44;100.00;100423.41;5063616;28;20829;-63
2022/10/15 11:08:31;;;;;;;;;;;;;;;14.48;100.00;100418.25;5067777;28;20082;-63
2022/10/15 11:11:15;;;;;;;2.10;1.98;;;;;;;14.54;100.00;100422.63;5058260;28;19920;-64
2022/10/15 11:14:06;;;;;;;2.08;1.98;;;;;;;14.57;100.00;100421.81;5055840;28;20109;-63
2022/10/15 11:16:46;;;;;;;2.42;2.20;;;;;;;14.62;100.00;100418.38;5062441;28;20480;-63